Time;durP1;ratioP1;P1;durP2;ratioP2;P2;SDS_P1;SDS_P2;PMS_P1;PMS_P2;Temp;Humidity;BMP_temperature;BMP_pressure;BME280_temperature;BME280_humidity;BME280_pressure;Samples;Min_cycle;Max_cycle;Signal;HPM_P1;HPM_P2
2021/04/07 00:01:36;;;;;;;9.60;5.10;;;;;;;0.40;68.26;99322.09;5078154;28;20425;-70
2021/04/07 00:04:02;;;;;;;9.48;4.75;;;;;;;0.51;68.64;99356.69;5076270;28;20036;-69
2021/04/07 00:06:27;;;;;;;9.88;5.30;;;;;;;0.39;69.06;99344.00;5077020;28;20056;-68
2021/04/07 00:08:53;;;;;;;7.80;4.60;;;;;;;0.46;69.10;99345.47;5077457;28;20043;-69
2021/04/07 00:11:18;;;;;;;9.63;5.28;;;;;;;0.51;68.56;99346.19;5094261;28;20379;-68
2021/04/07 00:13:45;;;;;;;9.55;4.30;;;;;;;0.51;68.56;99343.59;5078337;28;20044;-68
2021/04/07 00:16:11;;;;;;;10.93;4.97;;;;;;;0.49;68.83;99340.16;5095304;28;20040;-68
2021/04/07 00:18:37;;;;;;;8.27;4.53;;;;;;;0.45;68.79;99335.03;5085458;28;20058;-71
2021/04/07 00:21:03;;;;;;;9.68;5.07;;;;;;;0.32;68.88;99316.25;5102028;28;20063;-72
2021/04/07 00:23:29;;;;;;;8.55;5.00;;;;;;;0.28;68.99;99320.72;5099838;28;20491;-72
2021/04/07 00:25:54;;;;;;;10.20;4.90;;;;;;;0.34;69.31;99330.16;5101541;28;20052;-72
2021/04/07 00:28:21;;;;;;;8.65;4.50;;;;;;;0.43;68.91;99339.50;5066394;28;20032;-72
2021/04/07 00:30:48;;;;;;;9.32;4.60;;;;;;;0.36;69.46;99332.72;5100606;28;20085;-72
2021/04/07 00:33:16;;;;;;;10.80;5.28;;;;;;;0.37;69.43;99330.06;5097079;28;20039;-72
2021/04/07 00:35:41;;;;;;;8.40;5.10;;;;;;;0.38;69.16;99337.00;5095403;28;20024;-72
2021/04/07 00:38:07;;;;;;;10.43;5.00;;;;;;;0.22;69.46;99317.47;5094504;28;20042;-75
2021/04/07 00:40:33;;;;;;;8.95;4.97;;;;;;;0.26;69.62;99316.44;5078890;28;20036;-71
2021/04/07 00:43:02;;;;;;;6.63;4.65;;;;;;;0.19;69.45;99321.06;5077275;28;20038;-68
2021/04/07 00:45:27;;;;;;;8.68;4.82;;;;;;;-0.21;69.58;99253.28;5093218;28;20840;-69
2021/04/07 00:47:54;;;;;;;8.32;4.70;;;;;;;0.15;69.77;99313.31;5075367;28;20035;-69
2021/04/07 00:50:23;;;;;;;8.00;4.80;;;;;;;0.27;69.64;99313.75;5093201;28;20495;-69
2021/04/07 00:52:49;;;;;;;10.07;4.72;;;;;;;0.07;69.57;99294.34;5093227;28;20444;-69
2021/04/07 00:55:17;;;;;;;8.90;5.10;;;;;;;0.17;70.11;99320.22;5093098;28;20036;-68
2021/04/07 00:57:44;;;;;;;8.95;4.70;;;;;;;0.10;69.77;99294.28;5093087;28;20077;-70
2021/04/07 01:00:10;;;;;;;8.07;4.85;;;;;;;0.11;69.85;99314.34;5093074;28;20066;-73
2021/04/07 01:02:38;;;;;;;9.00;5.03;;;;;;;0.05;70.06;99304.03;5093488;28;20043;-71
2021/04/07 01:05:04;;;;;;;9.52;4.68;;;;;;;0.11;69.75;99303.84;5042283;28;20383;-70
2021/04/07 01:07:29;;;;;;;7.28;4.50;;;;;;;0.08;69.64;99306.56;5093038;28;20085;-72
2021/04/07 01:09:55;;;;;;;9.95;5.05;;;;;;;0.12;68.88;99301.16;5058721;28;20405;-71
2021/04/07 01:12:20;;;;;;;8.15;4.72;;;;;;;0.13;68.90;99305.50;5058191;28;20036;-72
2021/04/07 01:14:46;;;;;;;7.55;4.65;;;;;;;0.15;68.64;99297.59;5074914;28;20036;-71
2021/04/07 01:17:12;;;;;;;10.32;5.30;;;;;;;0.10;68.67;99300.38;5092623;28;20044;-71
2021/04/07 01:19:37;;;;;;;8.30;5.15;;;;;;;0.09;68.23;99287.28;5074966;28;20544;-69
2021/04/07 01:22:04;;;;;;;8.65;4.97;;;;;;;0.13;68.05;99309.88;5075919;28;20038;-69
2021/04/07 01:24:31;;;;;;;10.82;4.82;;;;;;;0.07;68.37;99312.69;5078978;28;20036;-71
2021/04/07 01:26:57;;;;;;;8.30;4.68;;;;;;;-0.28;68.69;99259.66;5079195;28;20032;-71
2021/04/07 01:29:23;;;;;;;8.68;4.85;;;;;;;-0.29;68.11;99234.34;5096679;28;20038;-71
2021/04/07 01:31:50;;;;;;;9.25;4.90;;;;;;;0.07;67.63;99286.47;5097135;28;20036;-70
2021/04/07 01:34:19;;;;;;;9.93;4.60;;;;;;;0.14;68.16;99311.59;5078619;28;20028;-70
2021/04/07 01:36:45;;;;;;;9.00;5.20;;;;;;;0.08;68.16;99319.66;5096854;28;20060;-70
2021/04/07 01:39:11;;;;;;;9.07;5.15;;;;;;;0.08;68.58;99311.78;5096788;28;20170;-71
2021/04/07 01:41:38;;;;;;;7.45;4.80;;;;;;;-0.13;68.35;99288.00;5096733;28;20024;-70
2021/04/07 01:44:06;;;;;;;11.60;5.35;;;;;;;-0.19;69.34;99309.16;5097065;28;20127;-69
2021/04/07 01:46:32;;;;;;;9.25;5.32;;;;;;;-0.28;69.70;99327.81;5096617;28;20036;-70
2021/04/07 01:48:58;;;;;;;8.27;5.03;;;;;;;-0.11;69.18;99327.25;5079071;28;20093;-69
2021/04/07 01:51:24;;;;;;;9.15;5.60;;;;;;;-0.17;69.72;99323.06;5078552;28;20035;-70
2021/04/07 01:53:49;;;;;;;9.52;5.57;;;;;;;-0.21;70.03;99323.19;5096789;28;20028;-70
2021/04/07 01:56:15;;;;;;;9.10;5.28;;;;;;;-0.23;70.11;99330.25;5061706;28;20040;-69
2021/04/07 01:58:40;;;;;;;10.23;5.80;;;;;;;-0.53;69.83;99267.44;5097044;28;20039;-70
2021/04/07 02:01:06;;;;;;;10.02;5.72;;;;;;;-0.26;70.24;99331.22;5045255;28;20032;-69
2021/04/07 02:03:31;;;;;;;7.93;5.13;;;;;;;-0.23;70.21;99325.03;5077935;28;20043;-69
2021/04/07 02:05:57;;;;;;;11.15;5.50;;;;;;;-0.23;70.02;99333.75;5096559;28;20086;-69
2021/04/07 02:08:22;;;;;;;9.60;5.32;;;;;;;-0.24;70.01;99325.94;5078079;28;20063;-69
2021/04/07 02:10:48;;;;;;;10.32;5.57;;;;;;;-0.26;70.25;99330.38;5061698;28;20032;-70
2021/04/07 02:13:13;;;;;;;8.02;4.80;;;;;;;-0.22;70.02;99324.97;5077903;28;20445;-74
2021/04/07 02:15:39;;;;;;;9.45;5.07;;;;;;;-0.41;70.51;99308.09;5078355;28;20035;-70
2021/04/07 02:18:04;;;;;;;10.25;5.53;;;;;;;-0.25;70.45;99334.69;5078151;28;20043;-71
2021/04/07 02:20:30;;;;;;;12.63;6.25;;;;;;;-0.27;70.38;99326.91;5096345;28;20063;-70
2021/04/07 02:22:56;;;;;;;9.88;5.90;;;;;;;-0.28;70.23;99340.03;5077668;28;20051;-70
2021/04/07 02:25:21;;;;;;;10.85;5.70;;;;;;;-0.21;70.61;99345.03;5096223;28;20056;-71
2021/04/07 02:27:46;;;;;;;10.65;5.53;;;;;;;-0.23;70.16;99344.22;5096170;28;20024;-71
2021/04/07 02:30:16;;;;;;;11.20;5.53;;;;;;;-0.20;70.51;99354.59;5077881;28;20032;-70
2021/04/07 02:32:42;;;;;;;8.95;5.40;;;;;;;-0.19;70.23;99345.88;5077928;28;20436;-70
2021/04/07 02:35:08;;;;;;;12.38;5.78;;;;;;;-0.20;70.09;99346.75;5077332;28;20063;-70
2021/04/07 02:37:34;;;;;;;8.73;5.93;;;;;;;-0.26;70.41;99344.34;5095605;28;20051;-70
2021/04/07 02:39:59;;;;;;;8.98;5.80;;;;;;;-0.31;70.74;99341.84;5095864;28;20081;-70
2021/04/07 02:42:25;;;;;;;10.90;6.10;;;;;;;-0.48;70.30;99301.31;5095628;28;20183;-70
2021/04/07 02:44:51;;;;;;;10.07;5.57;;;;;;;-0.54;70.47;99309.38;5096108;28;20035;-71
2021/04/07 02:47:17;;;;;;;10.40;5.93;;;;;;;-0.38;70.45;99334.22;5095474;28;20032;-70
2021/04/07 02:49:42;;;;;;;8.90;5.40;;;;;;;-0.43;70.03;99313.38;5077600;28;20035;-68
2021/04/07 02:52:07;;;;;;;10.20;5.53;;;;;;;-0.54;70.85;99312.00;5095378;28;20471;-68
2021/04/07 02:54:33;;;;;;;9.40;5.88;;;;;;;-0.41;70.37;99334.31;5077074;28;20032;-70
2021/04/07 02:57:00;;;;;;;11.45;6.20;;;;;;;-0.26;69.79;99341.72;5095563;28;20097;-72
2021/04/07 02:59:25;;;;;;;14.43;6.28;;;;;;;-0.30;69.94;99342.69;5077470;28;20043;-72
2021/04/07 03:01:51;;;;;;;10.68;5.85;;;;;;;-0.28;69.79;99354.00;5095254;28;20039;-71
2021/04/07 03:04:17;;;;;;;12.15;6.32;;;;;;;-0.37;70.04;99341.19;5060308;28;20119;-76
2021/04/07 03:06:43;;;;;;;11.98;6.00;;;;;;;-0.36;70.42;99356.84;5095532;28;20028;-71
2021/04/07 03:09:10;;;;;;;10.75;5.38;;;;;;;-0.40;70.50;99364.84;5095386;28;20028;-71
2021/04/07 03:11:36;;;;;;;10.45;5.93;;;;;;;-0.54;70.65;99340.81;5094986;28;20870;-71
2021/04/07 03:14:03;;;;;;;10.05;5.25;;;;;;;-0.46;70.82;99372.91;5095516;28;20036;-69
2021/04/07 03:16:28;;;;;;;13.00;6.72;;;;;;;-0.54;70.73;99356.53;5094994;28;20040;-69
2021/04/07 03:18:54;;;;;;;12.07;5.80;;;;;;;-0.42;70.72;99388.47;5095109;28;20380;-70
2021/04/07 03:21:19;;;;;;;12.02;6.53;;;;;;;-0.62;70.73;99370.72;5076956;28;20036;-71
2021/04/07 03:23:45;;;;;;;11.35;5.80;;;;;;;-0.55;70.98;99383.63;5077409;28;20529;-70
2021/04/07 03:26:11;;;;;;;11.38;6.18;;;;;;;-0.57;71.28;99390.69;5077015;28;20437;-70
2021/04/07 03:28:36;;;;;;;12.75;5.63;;;;;;;-0.46;70.84;99393.84;5094740;28;20081;-71
2021/04/07 03:31:02;;;;;;;11.10;6.15;;;;;;;-0.53;71.10;99398.41;5094911;28;20071;-71
2021/04/07 03:33:30;;;;;;;13.50;6.22;;;;;;;-0.60;70.98;99384.63;5076672;28;20044;-71
2021/04/07 03:35:56;;;;;;;10.02;5.88;;;;;;;-0.52;70.63;99404.50;5094862;28;20107;-71
2021/04/07 03:38:22;;;;;;;4.97;3.53;;;;;;;-0.77;70.83;99378.13;5094241;28;20030;-72
2021/04/07 03:40:48;;;;;;;10.90;6.38;;;;;;;-0.55;70.99;99420.31;5094571;28;20115;-70
2021/04/07 03:43:16;;;;;;;11.30;6.32;;;;;;;-0.60;71.03;99408.19;5094575;28;20067;-71
2021/04/07 03:45:46;;;;;;;11.57;5.68;;;;;;;-0.62;71.42;99419.63;5075889;28;20028;-71
2021/04/07 03:48:14;;;;;;;11.55;6.75;;;;;;;-0.73;72.01;99427.78;5076507;28;20066;-70
2021/04/07 03:50:40;;;;;;;13.55;6.10;;;;;;;-0.89;71.85;99389.81;5076450;28;20093;-70
2021/04/07 03:53:07;;;;;;;11.98;6.28;;;;;;;-0.77;72.09;99420.03;5094554;28;20035;-71
2021/04/07 03:55:32;;;;;;;10.30;5.97;;;;;;;-0.75;72.32;99434.81;5076074;28;20457;-71
2021/04/07 03:57:58;;;;;;;12.88;6.00;;;;;;;-0.94;72.40;99408.28;5094417;28;20059;-70
2021/04/07 04:00:24;;;;;;;12.52;5.55;;;;;;;-0.85;72.22;99428.13;5075867;28;20106;-73
2021/04/07 04:02:50;;;;;;;10.60;6.82;;;;;;;-0.98;72.49;99404.00;5094196;28;20036;-71
2021/04/07 04:05:16;;;;;;;9.45;5.25;;;;;;;-0.97;72.53;99407.47;5094204;28;20028;-70
2021/04/07 04:07:43;;;;;;;10.88;6.05;;;;;;;-0.85;72.89;99437.72;5075764;28;20059;-70
2021/04/07 04:10:09;;;;;;;7.97;4.53;;;;;;;-1.12;72.33;99392.19;5093991;28;20024;-71
2021/04/07 04:12:34;;;;;;;9.93;6.28;;;;;;;-0.92;72.85;99439.66;5093797;28;20081;-71
2021/04/07 04:15:00;;;;;;;11.73;6.03;;;;;;;-0.87;72.80;99448.22;5094388;28;20044;-71
2021/04/07 04:17:25;;;;;;;10.95;5.93;;;;;;;-1.02;72.56;99425.09;5058693;28;20502;-71
2021/04/07 04:19:51;;;;;;;13.15;6.43;;;;;;;-0.86;72.48;99449.97;5075643;28;20059;-70
2021/04/07 04:22:17;;;;;;;10.13;5.85;;;;;;;-0.86;72.61;99457.81;5076108;28;20028;-70
2021/04/07 04:24:42;;;;;;;9.82;6.28;;;;;;;-0.76;72.28;99464.53;5093291;28;20047;-71
2021/04/07 04:27:09;;;;;;;11.68;5.90;;;;;;;-0.70;71.88;99469.59;5093549;28;20466;-71
2021/04/07 04:29:35;;;;;;;10.85;6.70;;;;;;;-0.55;71.39;99462.22;5093503;28;20047;-72
2021/04/07 04:32:01;;;;;;;11.43;6.65;;;;;;;-0.77;70.94;99434.00;5093908;28;20042;-71
2021/04/07 04:34:26;;;;;;;9.68;5.50;;;;;;;-0.59;71.37;99464.91;5093198;28;20040;-70
2021/04/07 04:36:52;;;;;;;12.98;6.95;;;;;;;-0.89;70.80;99398.53;5093635;28;20081;-70
2021/04/07 04:39:17;;;;;;;10.85;6.28;;;;;;;-0.47;71.12;99470.75;5093454;28;20391;-72
2021/04/07 04:41:43;;;;;;;9.68;5.53;;;;;;;-0.54;71.14;99463.94;5075217;28;20036;-72
2021/04/07 04:44:08;;;;;;;10.43;5.63;;;;;;;-0.52;71.11;99473.47;5075843;28;20517;-71
2021/04/07 04:46:34;;;;;;;7.32;4.45;;;;;;;-0.49;70.93;99472.53;5075198;28;20040;-70
2021/04/07 04:48:59;;;;;;;8.77;4.72;;;;;;;-0.41;70.85;99474.03;5075437;28;20421;-69
2021/04/07 04:51:25;;;;;;;10.20;5.60;;;;;;;-0.25;70.15;99490.19;5092851;28;20043;-71
2021/04/07 04:53:50;;;;;;;12.18;6.80;;;;;;;-0.24;70.12;99478.81;5093418;28;20050;-70
2021/04/07 04:56:16;;;;;;;12.82;6.55;;;;;;;-0.31;69.64;99466.75;5092887;28;20074;-71
2021/04/07 04:58:41;;;;;;;11.93;6.63;;;;;;;-0.28;69.34;99445.72;5074922;28;20039;-71
2021/04/07 05:01:07;;;;;;;12.45;6.65;;;;;;;-0.18;69.32;99476.00;5075481;28;20452;-70
2021/04/07 05:03:32;;;;;;;10.15;6.13;;;;;;;-0.45;69.34;99416.53;5092905;28;20313;-71
2021/04/07 05:05:57;;;;;;;11.90;6.05;;;;;;;0.11;69.36;99505.78;5075130;28;20040;-70
2021/04/07 05:08:23;;;;;;;11.57;6.75;;;;;;;0.00;68.63;99472.00;5074922;28;20059;-70
2021/04/07 05:10:49;;;;;;;11.27;6.15;;;;;;;0.38;68.38;99511.94;5057835;28;20078;-70
2021/04/07 05:13:14;;;;;;;9.73;5.95;;;;;;;0.43;67.56;99510.91;5075126;28;20040;-70
2021/04/07 05:15:40;;;;;;;10.73;6.15;;;;;;;0.49;67.80;99518.59;5092536;28;20071;-70
2021/04/07 05:18:17;;;;;;;10.00;5.93;;;;;;;0.47;67.33;99515.13;5074631;28;20509;-70
2021/04/07 05:20:42;;;;;;;9.85;5.55;;;;;;;0.51;67.39;99516.78;5092216;28;20048;-70
2021/04/07 05:23:09;;;;;;;13.43;6.03;;;;;;;0.37;67.29;99491.84;5093117;28;20032;-71
2021/04/07 05:25:38;;;;;;;9.73;5.82;;;;;;;0.50;67.49;99524.69;5092445;28;20488;-73
2021/04/07 05:28:07;;;;;;;13.43;6.35;;;;;;;0.54;67.34;99505.31;5092694;28;20036;-72
2021/04/07 05:33:23;;;;;;;11.63;5.32;;;;;;;0.96;66.35;99538.97;5093115;28;20039;-73
2021/04/07 05:35:48;;;;;;;13.50;5.03;;;;;;;1.15;65.74;99545.34;5092747;28;20068;-74
2021/04/07 05:38:14;;;;;;;10.98;6.03;;;;;;;1.15;65.12;99550.59;5075148;28;20501;-70
2021/04/07 05:40:40;;;;;;;11.13;5.60;;;;;;;1.13;65.04;99511.25;5074691;28;20024;-71
2021/04/07 05:43:06;;;;;;;10.70;5.50;;;;;;;1.37;64.35;99520.09;5092675;28;20036;-71
2021/04/07 05:45:31;;;;;;;9.18;4.85;;;;;;;1.57;64.08;99552.69;5074412;28;20466;-71
2021/04/07 05:47:57;;;;;;;9.93;5.55;;;;;;;1.66;63.84;99552.38;5074792;28;20063;-70
2021/04/07 05:50:22;;;;;;;13.10;5.72;;;;;;;1.50;63.81;99532.78;5074929;28;20079;-71
2021/04/07 05:52:51;;;;;;;10.25;5.45;;;;;;;1.70;63.46;99552.22;5092532;28;20044;-71
2021/04/07 05:55:18;;;;;;;10.40;5.30;;;;;;;1.80;63.29;99554.50;5041220;28;20089;-72
2021/04/07 05:57:43;;;;;;;9.85;5.82;;;;;;;1.86;62.98;99562.19;5074353;28;20036;-72
2021/04/07 06:00:10;;;;;;;10.48;6.10;;;;;;;1.80;63.60;99555.38;5092752;28;20032;-73
2021/04/07 06:02:35;;;;;;;11.15;5.85;;;;;;;1.90;63.25;99561.16;5092427;28;20036;-72
2021/04/07 06:05:01;;;;;;;11.60;5.20;;;;;;;1.56;63.25;99519.44;5092713;28;20028;-72
2021/04/07 06:07:26;;;;;;;9.85;5.45;;;;;;;1.85;62.26;99528.94;5074431;28;20028;-75
2021/04/07 06:09:52;;;;;;;8.20;5.03;;;;;;;2.04;62.14;99556.28;5086756;28;20027;-75
2021/04/07 06:12:17;;;;;;;8.00;4.93;;;;;;;2.07;62.17;99557.94;5109076;28;20031;-71
2021/04/07 06:14:43;;;;;;;8.77;4.80;;;;;;;2.17;61.64;99554.03;5098147;28;20038;-71
2021/04/07 06:17:08;;;;;;;9.80;5.10;;;;;;;2.05;61.56;99539.56;5115707;28;20085;-73
2021/04/07 06:19:34;;;;;;;8.98;5.00;;;;;;;2.51;61.05;99569.41;5096396;28;20097;-71
2021/04/07 06:21:59;;;;;;;10.52;5.28;;;;;;;2.76;60.29;99564.06;5115959;28;20501;-76
2021/04/07 06:24:25;;;;;;;6.53;3.72;;;;;;;2.74;59.84;99565.91;5097955;28;20063;-75
2021/04/07 06:26:50;;;;;;;7.65;4.93;;;;;;;2.47;59.52;99507.28;5097043;28;20034;-73
2021/04/07 06:29:16;;;;;;;8.38;4.55;;;;;;;3.22;58.72;99581.53;5115977;28;20458;-73
2021/04/07 06:31:41;;;;;;;10.65;5.05;;;;;;;3.83;56.55;99584.22;5097315;28;20147;-71
2021/04/07 06:34:07;;;;;;;9.20;5.20;;;;;;;4.43;55.06;99586.84;5115177;28;20032;-67
2021/04/07 06:36:32;;;;;;;8.18;4.72;;;;;;;4.28;54.71;99589.28;5094231;28;20039;-71
2021/04/07 06:38:57;;;;;;;9.57;5.15;;;;;;;3.51;56.37;99558.38;5114681;28;20036;-71
2021/04/07 06:41:23;;;;;;;10.55;4.88;;;;;;;3.42;57.53;99580.72;5090338;28;20043;-69
2021/04/07 06:43:51;;;;;;;7.32;4.80;;;;;;;3.43;57.84;99578.00;5094768;28;20047;-69
2021/04/07 06:46:20;;;;;;;8.15;4.97;;;;;;;3.80;56.81;99588.78;5093629;28;20123;-74
2021/04/07 06:48:47;;;;;;;11.00;5.45;;;;;;;4.06;55.36;99592.94;5094823;28;20039;-70
2021/04/07 06:51:18;;;;;;;9.50;5.03;;;;;;;3.81;56.19;99570.25;5095128;28;20047;-74
2021/04/07 06:53:47;;;;;;;9.20;5.38;;;;;;;3.87;55.57;99527.78;5094884;28;20467;-71
2021/04/07 06:56:14;;;;;;;10.55;5.82;;;;;;;4.22;55.44;99599.25;5093454;28;20071;-70
2021/04/07 06:58:39;;;;;;;9.77;5.53;;;;;;;4.28;55.24;99593.69;5093449;28;20364;-70
2021/04/07 07:01:05;;;;;;;11.93;5.47;;;;;;;4.00;54.84;99572.94;5094634;28;20157;-72
2021/04/07 07:03:30;;;;;;;10.57;5.78;;;;;;;3.92;55.30;99597.03;5094819;28;20028;-70
2021/04/07 07:05:59;;;;;;;9.90;5.45;;;;;;;3.66;55.85;99565.63;5093254;28;20036;-73
2021/04/07 07:08:24;;;;;;;8.57;5.53;;;;;;;3.67;55.65;99588.47;5094813;28;20028;-75
2021/04/07 07:10:52;;;;;;;8.90;5.43;;;;;;;3.73;54.94;99596.94;5112552;28;20490;-76
2021/04/07 07:13:22;;;;;;;10.48;5.47;;;;;;;3.64;55.31;99570.13;5113446;28;20446;-72
2021/04/07 07:15:49;;;;;;;9.52;5.55;;;;;;;3.67;55.11;99601.66;5114196;28;20394;-73
2021/04/07 07:18:25;;;;;;;8.23;5.30;;;;;;;3.61;55.92;99575.53;5114648;28;20063;-76
2021/04/07 07:20:51;;;;;;;10.38;5.60;;;;;;;3.71;54.97;99592.69;5113963;28;20039;-74
2021/04/07 07:23:31;;;;;;;9.45;6.10;;;;;;;3.78;54.60;99604.69;5114456;28;20493;-74
2021/04/07 07:26:05;;;;;;;11.32;5.80;;;;;;;3.89;54.64;99591.88;5117206;28;20035;-76
2021/04/07 07:28:43;;;;;;;9.63;5.70;;;;;;;3.97;54.61;99610.03;5114636;28;20031;-75
2021/04/07 07:31:21;;;;;;;9.63;5.55;;;;;;;3.95;53.74;99604.78;5114992;28;20039;-74
2021/04/07 07:33:47;;;;;;;10.88;6.47;;;;;;;3.83;54.67;99610.59;5113285;28;20065;-75
2021/04/07 07:36:13;;;;;;;9.63;5.45;;;;;;;3.88;54.33;99621.84;5114513;28;20421;-74
2021/04/07 07:38:52;;;;;;;10.15;5.35;;;;;;;3.92;52.79;99597.03;5096035;28;20612;-74
2021/04/07 07:41:23;;;;;;;11.40;5.72;;;;;;;4.01;53.22;99623.00;5094146;28;20028;-70
2021/04/07 07:43:50;;;;;;;9.82;5.55;;;;;;;4.00;52.72;99621.31;5093964;28;20440;-72
2021/04/07 07:46:20;;;;;;;8.00;5.22;;;;;;;4.10;52.94;99620.91;5075593;28;20043;-72
2021/04/07 07:48:46;;;;;;;9.88;5.75;;;;;;;4.20;52.51;99628.34;5093422;28;20390;-73
2021/04/07 07:51:29;;;;;;;11.73;5.43;;;;;;;3.88;53.10;99600.72;5094204;28;20063;-75
2021/04/07 07:53:55;;;;;;;10.48;5.90;;;;;;;4.17;52.38;99632.91;5094087;28;20050;-75
2021/04/07 07:56:34;;;;;;;9.90;5.80;;;;;;;4.16;52.11;99634.69;5075411;28;20040;-73
2021/04/07 07:58:59;;;;;;;8.57;4.72;;;;;;;4.21;52.77;99634.47;5075656;28;20181;-71
2021/04/07 08:01:25;;;;;;;10.48;6.10;;;;;;;3.83;52.67;99576.31;5093336;28;20107;-72
2021/04/07 08:03:50;;;;;;;6.80;4.30;;;;;;;3.69;52.48;99574.28;5093211;28;20032;-75
2021/04/07 08:06:16;;;;;;;9.48;5.90;;;;;;;4.01;52.49;99623.00;5075409;28;20036;-75
2021/04/07 08:08:42;;;;;;;8.88;3.80;;;;;;;4.31;52.11;99638.44;5075139;28;20043;-75
2021/04/07 08:11:08;;;;;;;5.78;3.25;;;;;;;4.05;53.04;99615.81;5095846;28;20089;-72
2021/04/07 08:13:45;;;;;;;8.82;4.75;;;;;;;4.47;52.17;99641.25;5095556;28;20067;-74
2021/04/07 08:16:20;;;;;;;8.15;4.35;;;;;;;4.21;50.48;99595.75;5113560;28;20390;-73
2021/04/07 08:18:47;;;;;;;6.53;3.78;;;;;;;4.28;50.20;99626.22;5095084;28;20139;-75
2021/04/07 08:21:20;;;;;;;9.65;5.10;;;;;;;4.51;50.20;99637.53;5114077;28;20039;-74
2021/04/07 08:23:52;;;;;;;5.50;3.13;;;;;;;4.06;51.24;99620.19;5113250;28;20591;-73
2021/04/07 08:26:20;;;;;;;8.27;5.20;;;;;;;4.03;51.87;99597.41;5113049;28;20474;-72
2021/04/07 08:28:46;;;;;;;9.30;5.90;;;;;;;4.25;51.60;99657.19;5095061;28;20030;-72
2021/04/07 08:31:16;;;;;;;4.82;3.22;;;;;;;4.60;50.86;99647.69;5095507;28;20036;-74
2021/04/07 08:33:50;;;;;;;5.13;2.85;;;;;;;4.57;49.13;99617.00;5113390;28;20068;-75
2021/04/07 08:36:18;;;;;;;11.98;5.57;;;;;;;4.91;49.37;99651.56;5114008;28;20393;-74
2021/04/07 08:38:44;;;;;;;8.93;5.18;;;;;;;5.04;47.52;99664.16;5122815;28;20036;-74
2021/04/07 08:41:18;;;;;;;7.97;4.97;;;;;;;4.46;47.62;99603.44;5115441;28;20027;-73
2021/04/07 08:43:44;;;;;;;7.88;4.65;;;;;;;4.81;47.44;99625.56;5113144;28;20035;-72
2021/04/07 08:46:15;;;;;;;6.25;3.78;;;;;;;4.81;47.93;99622.91;5112778;28;20038;-73
2021/04/07 08:48:41;;;;;;;8.32;4.40;;;;;;;5.16;47.22;99655.63;5113209;28;20402;-76
2021/04/07 08:51:09;;;;;;;10.50;5.07;;;;;;;5.17;47.22;99638.84;5094888;28;20108;-73
2021/04/07 08:53:43;;;;;;;8.75;5.43;;;;;;;5.52;46.15;99656.59;5095137;28;20141;-74
2021/04/07 08:56:17;;;;;;;8.55;5.07;;;;;;;5.26;46.61;99636.69;5094744;28;20031;-74
2021/04/07 08:58:50;;;;;;;;;;;;;;;5.49;46.25;99656.72;5095597;28;20031;-75
2021/04/07 09:01:20;;;;;;;8.20;5.30;;;;;;;5.52;46.13;99654.81;5095056;28;20044;-74
2021/04/07 09:03:46;;;;;;;8.23;5.28;;;;;;;5.61;45.75;99664.94;5077818;28;20055;-74
2021/04/07 09:06:12;;;;;;;6.68;3.13;;;;;;;5.70;45.23;99668.94;5113057;28;20503;-74
2021/04/07 09:08:38;;;;;;;8.88;4.60;;;;;;;6.11;44.62;99664.22;5095038;28;20077;-70
2021/04/07 09:11:04;;;;;;;7.55;3.88;;;;;;;6.02;43.68;99638.22;5094125;28;20438;-73
2021/04/07 09:13:32;;;;;;;7.22;4.80;;;;;;;6.13;43.56;99672.94;5092727;28;20060;-70
2021/04/07 09:16:04;;;;;;;7.35;4.30;;;;;;;6.22;42.93;99656.56;5093964;28;20119;-74
2021/04/07 09:18:37;;;;;;;7.32;4.13;;;;;;;6.21;42.43;99681.34;5112775;28;20028;-73
2021/04/07 09:21:04;;;;;;;7.50;4.88;;;;;;;6.06;42.92;99671.53;5112620;28;20592;-71
2021/04/07 09:23:32;;;;;;;5.60;3.50;;;;;;;5.93;42.84;99655.41;5094762;28;20046;-77
2021/04/07 09:26:07;;;;;;;6.95;4.32;;;;;;;6.00;42.55;99663.91;5112014;28;20501;-73
2021/04/07 09:28:38;;;;;;;6.43;4.32;;;;;;;6.16;42.00;99672.78;5112934;28;20028;-70
2021/04/07 09:31:13;;;;;;;6.93;4.15;;;;;;;6.44;42.04;99666.06;5112310;28;20393;-72
2021/04/07 09:33:42;;;;;;;7.47;3.28;;;;;;;6.13;41.49;99666.78;5094652;28;20118;-75
2021/04/07 09:36:08;;;;;;;8.13;4.00;;;;;;;6.26;41.23;99675.81;5111812;28;20046;-75
2021/04/07 09:38:37;;;;;;;7.63;4.30;;;;;;;6.07;40.50;99662.66;5112816;28;20470;-76
2021/04/07 09:41:25;;;;;;;6.13;2.95;;;;;;;6.14;41.13;99679.94;5112020;28;20032;-71
2021/04/07 09:43:52;;;;;;;7.55;4.18;;;;;;;5.73;40.26;99603.47;5114481;28;20039;-70
2021/04/07 09:46:19;;;;;;;5.05;3.42;;;;;;;6.09;40.98;99676.69;5116730;28;20093;-73
2021/04/07 09:48:50;;;;;;;6.40;3.55;;;;;;;5.97;40.05;99672.84;5100875;28;20032;-68
2021/04/07 09:51:29;;;;;;;6.50;3.88;;;;;;;5.93;39.72;99633.38;5118478;28;20063;-72
2021/04/07 09:54:08;;;;;;;6.57;3.28;;;;;;;6.11;38.41;99669.50;5116385;28;20035;-72
2021/04/07 09:56:55;;;;;;;5.50;3.00;;;;;;;6.25;37.95;99674.09;5116223;28;20058;-72
2021/04/07 09:59:45;;;;;;;4.50;2.80;;;;;;;6.20;37.13;99689.38;5116762;28;20370;-72
2021/04/07 10:02:10;;;;;;;4.80;2.78;;;;;;;6.13;37.75;99694.13;5116124;28;20027;-74
2021/04/07 10:04:43;;;;;;;5.63;2.97;;;;;;;6.25;37.82;99688.19;5120777;28;20038;-73
2021/04/07 10:07:21;;;;;;;8.15;3.35;;;;;;;6.39;37.48;99687.50;5097612;28;20486;-73
2021/04/07 10:10:07;;;;;;;4.40;2.90;;;;;;;6.45;37.66;99671.25;5120999;28;20052;-73
2021/04/07 10:12:33;;;;;;;7.15;2.78;;;;;;;6.16;36.98;99672.78;5116659;28;20040;-77
2021/04/07 10:15:02;;;;;;;5.90;2.67;;;;;;;6.36;36.48;99686.78;5115139;28;20069;-73
2021/04/07 10:17:28;;;;;;;5.90;3.08;;;;;;;6.51;36.64;99691.28;5097763;28;20386;-69
2021/04/07 10:19:54;;;;;;;5.95;3.17;;;;;;;6.45;36.22;99689.81;5114431;28;20143;-72
2021/04/07 10:22:25;;;;;;;5.10;2.70;;;;;;;6.30;36.67;99662.34;5116050;28;20028;-71
2021/04/07 10:24:55;;;;;;;5.28;2.72;;;;;;;6.62;36.27;99651.81;5115264;28;20035;-72
2021/04/07 10:27:22;;;;;;;4.80;2.80;;;;;;;6.41;35.31;99652.97;5115829;28;20371;-73
2021/04/07 10:29:49;;;;;;;7.32;2.63;;;;;;;6.74;35.09;99712.13;5097601;28;20122;-76
2021/04/07 10:32:19;;;;;;;4.47;2.78;;;;;;;6.70;34.84;99710.59;5115792;28;20118;-71
2021/04/07 10:34:46;;;;;;;7.60;2.80;;;;;;;6.97;34.77;99705.63;5097586;28;20032;-72
2021/04/07 10:37:16;;;;;;;5.32;3.00;;;;;;;6.69;34.87;99711.53;5114960;28;20427;-68
2021/04/07 10:39:42;;;;;;;5.65;3.08;;;;;;;6.76;34.99;99697.03;5115479;28;20028;-70
2021/04/07 10:42:10;;;;;;;5.13;2.95;;;;;;;6.80;34.68;99669.41;5115407;28;20108;-72
2021/04/07 10:44:36;;;;;;;5.28;2.67;;;;;;;6.80;34.83;99679.16;5097156;28;20038;-73
2021/04/07 10:47:02;;;;;;;4.20;2.58;;;;;;;6.89;35.01;99668.06;5079843;28;20035;-74
2021/04/07 10:49:27;;;;;;;5.13;2.10;;;;;;;6.95;35.67;99699.53;5097152;28;20031;-73
2021/04/07 10:52:02;;;;;;;6.40;2.92;;;;;;;6.86;35.34;99679.69;5097035;28;20118;-74
2021/04/07 10:54:28;;;;;;;6.22;3.13;;;;;;;6.99;35.55;99700.22;5114671;28;20063;-71
2021/04/07 10:57:09;;;;;;;5.25;3.00;;;;;;;6.96;35.30;99705.69;5096048;28;20482;-71
2021/04/07 10:59:35;;;;;;;4.95;2.63;;;;;;;6.96;35.17;99700.41;5115334;28;20023;-71
2021/04/07 11:02:14;;;;;;;5.80;2.97;;;;;;;7.04;34.62;99703.47;5114999;28;20118;-73
2021/04/07 11:04:40;;;;;;;5.63;3.15;;;;;;;7.47;34.28;99707.28;5115519;28;20059;-71
2021/04/07 11:07:07;;;;;;;4.72;2.63;;;;;;;7.60;33.50;99704.78;5114817;28;20062;-71
2021/04/07 11:09:34;;;;;;;5.82;3.00;;;;;;;7.46;33.96;99679.88;5096857;28;20120;-71
2021/04/07 11:12:01;;;;;;;6.18;3.15;;;;;;;7.60;34.39;99702.13;5096301;28;20110;-72
2021/04/07 11:14:27;;;;;;;6.30;2.90;;;;;;;7.65;34.45;99700.94;5096515;28;20139;-72
2021/04/07 11:17:00;;;;;;;5.88;3.00;;;;;;;7.62;33.92;99718.81;5114440;28;20107;-74
2021/04/07 11:19:38;;;;;;;4.75;2.78;;;;;;;7.01;32.78;99690.38;5114946;28;20470;-74
2021/04/07 11:22:05;;;;;;;7.05;2.58;;;;;;;7.38;32.44;99673.28;5096311;28;20035;-74
2021/04/07 11:24:31;;;;;;;4.25;2.20;;;;;;;7.28;30.37;99719.84;5114875;28;20032;-74
2021/04/07 11:26:57;;;;;;;3.80;2.20;;;;;;;7.19;30.12;99721.22;5114280;28;20118;-73
2021/04/07 11:29:23;;;;;;;3.67;2.33;;;;;;;7.31;30.56;99704.59;5096628;28;20035;-72
2021/04/07 11:31:53;;;;;;;5.13;2.20;;;;;;;7.21;31.42;99716.66;5114495;28;20097;-72
2021/04/07 11:34:25;;;;;;;5.32;2.40;;;;;;;7.69;31.71;99712.22;5114305;28;20474;-72
2021/04/07 11:39:48;;;;;;;4.78;2.55;;;;;;;7.63;32.50;99712.59;5114281;28;20031;-70
2021/04/07 11:42:19;;;;;;;4.63;2.53;;;;;;;7.21;32.97;99637.09;5114278;28;20028;-70
2021/04/07 11:44:44;;;;;;;4.10;2.40;;;;;;;7.59;32.75;99717.19;5095968;28;20417;-72